Time;durP1;ratioP1;P1;durP2;ratioP2;P2;SDS_P1;SDS_P2;PMS_P1;PMS_P2;Temp;Humidity;BMP_temperature;BMP_pressure;BME280_temperature;BME280_humidity;BME280_pressure;Samples;Min_cycle;Max_cycle;Signal;HPM_P1;HPM_P2
2022/07/13 00:00:54;;;;;;;7.57;2.90;;;19.70;1.00;;;;;;6319127;22;20394;-84
2022/07/13 00:03:21;;;;;;;7.80;3.33;;;19.60;1.00;;;;;;6305680;22;20438;-79
2022/07/13 00:05:50;;;;;;;7.23;2.70;;;19.50;1.00;;;;;;6316674;22;20430;-80
2022/07/13 00:08:17;;;;;;;9.63;2.70;;;19.50;1.00;;;;;;6311852;22;20414;-81
2022/07/13 00:10:44;;;;;;;8.03;2.70;;;19.40;1.00;;;;;;6320952;22;21213;-81
2022/07/13 00:13:14;;;;;;;8.57;3.10;;;19.30;1.00;;;;;;6321797;22;20412;-81
2022/07/13 00:15:41;;;;;;;6.37;2.60;;;19.30;1.00;;;;;;6319936;22;20399;-82
2022/07/13 00:18:10;;;;;;;6.40;2.93;;;19.20;1.00;;;;;;6320482;22;20419;-80
2022/07/13 00:20:39;;;;;;;8.33;3.37;;;19.10;1.00;;;;;;6322071;22;20547;-81
2022/07/13 00:23:06;;;;;;;6.70;2.83;;;19.10;1.00;;;;;;6322881;22;20454;-80
2022/07/13 00:25:34;;;;;;;7.83;3.20;;;19.00;1.00;;;;;;6323853;22;20397;-81
2022/07/13 00:28:01;;;;;;;7.17;3.23;;;19.00;1.00;;;;;;6320482;22;20825;-80
2022/07/13 00:30:34;;;;;;;7.07;2.83;;;19.00;1.00;;;;;;6320794;22;20454;-84
2022/07/13 00:33:01;;;;;;;8.10;2.90;;;19.00;1.00;;;;;;6320077;22;20446;-81
2022/07/13 00:35:32;;;;;;;6.73;2.90;;;19.00;1.00;;;;;;6319174;22;20430;-79
2022/07/13 00:37:59;;;;;;;7.40;3.10;;;19.10;1.00;;;;;;6292115;22;20464;-80
2022/07/13 00:40:26;;;;;;;6.20;3.07;;;19.10;1.00;;;;;;6316126;22;20504;-81
2022/07/13 00:42:54;;;;;;;7.63;2.80;;;19.20;1.00;;;;;;6314972;22;20385;-84
2022/07/13 00:45:21;;;;;;;6.40;2.70;;;19.20;1.00;;;;;;6320348;22;20502;-81
2022/07/13 00:47:54;;;;;;;7.00;3.07;;;19.20;1.00;;;;;;6290984;22;20491;-85
2022/07/13 00:50:22;;;;;;;7.40;3.03;;;19.20;1.00;;;;;;6302292;22;20449;-81
2022/07/13 00:52:57;;;;;;;9.17;3.17;;;19.20;1.00;;;;;;6317180;22;20651;-82
2022/07/13 00:55:25;;;;;;;9.03;3.90;;;19.20;1.00;;;;;;6321745;22;20909;-84
2022/07/13 00:57:54;;;;;;;7.03;2.70;;;19.20;1.00;;;;;;6320581;22;20390;-79
2022/07/13 01:00:21;;;;;;;7.40;3.70;;;19.20;1.00;;;;;;6322171;22;20462;-85
2022/07/13 01:02:54;;;;;;;6.53;3.17;;;19.20;1.00;;;;;;6305265;22;20453;-86
2022/07/13 01:05:21;;;;;;;7.90;3.30;;;19.20;1.00;;;;;;6317008;22;20458;-82
2022/07/13 01:07:53;;;;;;;8.00;3.53;;;19.20;1.00;;;;;;6319002;22;20418;-82
2022/07/13 01:10:20;;;;;;;6.30;3.10;;;19.20;1.00;;;;;;6320339;22;20493;-82
2022/07/13 01:12:49;;;;;;;7.47;2.83;;;19.20;1.00;;;;;;6319101;22;20454;-84
2022/07/13 01:15:16;;;;;;;7.50;3.00;;;19.20;1.00;;;;;;6295080;22;20449;-83
2022/07/13 01:17:44;;;;;;;7.60;3.50;;;19.20;1.00;;;;;;6314271;22;20509;-81
2022/07/13 01:20:17;;;;;;;8.70;3.70;;;19.10;1.00;;;;;;6320133;22;20425;-81
2022/07/13 01:22:46;;;;;;;9.10;3.87;;;19.20;1.00;;;;;;6320499;22;20422;-81
2022/07/13 01:25:16;;;;;;;10.83;4.60;;;19.20;1.00;;;;;;6305487;22;20409;-82
2022/07/13 01:27:46;;;;;;;8.80;3.50;;;19.20;1.00;;;;;;6302450;22;20417;-80
2022/07/13 01:30:13;;;;;;;6.67;3.20;;;19.20;1.00;;;;;;6319447;22;20479;-83
2022/07/13 01:32:46;;;;;;;8.80;3.20;;;19.20;1.00;;;;;;6301659;22;20386;-82
2022/07/13 01:35:14;;;;;;;7.43;3.23;;;19.20;1.00;;;;;;6320131;22;20426;-82
2022/07/13 01:37:42;;;;;;;8.13;3.20;;;19.20;1.00;;;;;;6299838;22;20862;-83
2022/07/13 01:40:14;;;;;;;9.47;3.70;;;19.20;1.00;;;;;;6321424;22;20449;-81
2022/07/13 01:42:47;;;;;;;7.00;3.80;;;19.20;1.00;;;;;;6320685;22;20438;-83
2022/07/13 01:45:15;;;;;;;7.93;3.33;;;19.20;1.00;;;;;;6319374;22;20407;-81
2022/07/13 01:47:43;;;;;;;7.50;3.50;;;19.20;1.00;;;;;;6315101;22;20922;-83
2022/07/13 01:50:15;;;;;;;7.90;4.17;;;19.20;1.00;;;;;;6308111;22;20382;-80
2022/07/13 01:52:41;;;;;;;7.17;4.03;;;19.20;1.00;;;;;;6319257;22;20434;-79
2022/07/13 01:55:14;;;;;;;7.63;3.80;;;19.20;1.00;;;;;;6310498;22;20505;-85
2022/07/13 01:57:41;;;;;;;9.67;3.60;;;19.20;1.00;;;;;;6312729;22;20401;-81
2022/07/13 02:00:17;;;;;;;8.33;3.13;;;19.20;1.00;;;;;;6318810;22;20421;-80
2022/07/13 02:02:44;;;;;;;7.20;2.93;;;19.30;1.00;;;;;;6301841;22;20406;-81
2022/07/13 02:05:14;;;;;;;6.70;3.10;;;19.30;1.00;;;;;;6308134;22;20408;-81
2022/07/13 02:07:42;;;;;;;6.30;2.73;;;19.30;1.00;;;;;;6310920;22;20421;-80
2022/07/13 02:10:15;;;;;;;6.70;3.40;;;19.40;1.00;;;;;;6320133;22;20445;-81
2022/07/13 02:12:42;;;;;;;7.10;2.70;;;19.50;1.00;;;;;;6315792;22;20390;-80
2022/07/13 02:15:17;;;;;;;6.90;3.10;;;19.50;1.00;;;;;;6289447;22;20460;-82
2022/07/13 02:17:44;;;;;;;7.20;3.00;;;19.50;1.00;;;;;;6310417;22;20409;-81
2022/07/13 02:20:14;;;;;;;7.20;2.97;;;19.40;1.00;;;;;;6292424;22;20391;-80
2022/07/13 02:22:43;;;;;;;7.30;3.40;;;19.40;1.00;;;;;;6321345;22;20776;-84
2022/07/13 02:25:14;;;;;;;7.73;3.00;;;19.40;1.00;;;;;;6317166;22;20398;-80
2022/07/13 02:27:41;;;;;;;7.30;2.80;;;19.40;1.00;;;;;;6284097;22;20446;-84
2022/07/13 02:30:15;;;;;;;7.70;3.50;;;19.30;1.00;;;;;;6311756;22;20898;-81
2022/07/13 02:32:43;;;;;;;8.53;3.63;;;19.30;1.00;;;;;;6321029;22;20441;-81
2022/07/13 02:35:14;;;;;;;6.80;3.20;;;19.30;1.00;;;;;;6296866;22;20453;-85
2022/07/13 02:37:41;;;;;;;9.00;3.73;;;19.30;1.00;;;;;;6309689;22;21002;-82
2022/07/13 02:40:14;;;;;;;7.93;2.70;;;19.30;1.00;;;;;;6321498;22;20492;-81
2022/07/13 02:42:41;;;;;;;7.00;2.80;;;19.30;1.00;;;;;;6319067;22;20509;-79
2022/07/13 02:45:14;;;;;;;10.30;3.10;;;19.40;1.00;;;;;;6305669;22;20940;-80
2022/07/13 02:47:41;;;;;;;7.37;3.40;;;19.40;1.00;;;;;;6303072;22;20467;-81
2022/07/13 02:50:13;;;;;;;7.53;3.20;;;19.40;1.00;;;;;;6317803;22;20980;-80
2022/07/13 02:52:40;;;;;;;8.33;3.33;;;19.50;1.00;;;;;;6302588;22;20434;-82
2022/07/13 02:55:07;;;;;;;6.63;2.73;;;19.50;1.00;;;;;;6313901;22;20460;-81
2022/07/13 02:57:35;;;;;;;7.80;3.40;;;19.50;1.00;;;;;;6297665;22;20386;-82
2022/07/13 03:00:02;;;;;;;6.67;3.10;;;19.50;1.00;;;;;;6314509;22;20505;-84
2022/07/13 03:02:35;;;;;;;8.20;4.47;;;19.50;1.00;;;;;;6315100;22;20468;-80
2022/07/13 03:05:02;;;;;;;7.70;3.37;;;19.50;1.00;;;;;;6302614;22;20426;-81
2022/07/13 03:07:33;;;;;;;6.80;3.00;;;19.50;1.00;;;;;;6321744;22;20406;-81
2022/07/13 03:10:00;;;;;;;7.43;2.83;;;19.50;1.00;;;;;;6322293;22;20417;-82
2022/07/13 03:12:27;;;;;;;7.33;3.20;;;19.50;1.00;;;;;;6320034;22;20424;-80
2022/07/13 03:14:54;;;;;;;7.33;2.80;;;19.50;1.00;;;;;;6316866;22;20490;-80
2022/07/13 03:17:21;;;;;;;8.00;2.73;;;19.60;1.00;;;;;;6309394;22;20418;-79
2022/07/13 03:19:54;;;;;;;6.30;2.93;;;19.60;1.00;;;;;;6315554;22;20449;-81
2022/07/13 03:22:21;;;;;;;8.80;2.97;;;19.50;1.00;;;;;;6323067;22;20985;-80
2022/07/13 03:24:55;;;;;;;7.13;3.27;;;19.50;1.00;;;;;;6322626;22;20462;-81
2022/07/13 03:27:22;;;;;;;6.47;2.93;;;19.50;1.00;;;;;;6324405;22;20483;-82
2022/07/13 03:29:54;;;;;;;7.50;3.20;;;19.50;1.00;;;;;;6295815;22;20418;-85
2022/07/13 03:32:21;;;;;;;7.73;2.93;;;19.50;1.00;;;;;;6319479;22;20502;-81
2022/07/13 03:34:54;;;;;;;6.83;2.93;;;19.50;1.00;;;;;;6306383;22;20440;-81
2022/07/13 03:37:21;;;;;;;7.87;3.10;;;19.40;1.00;;;;;;6324368;22;20441;-84
2022/07/13 03:39:49;;;;;;;12.10;3.27;;;19.40;1.00;;;;;;6306423;22;20509;-84
2022/07/13 03:42:16;;;;;;;7.60;3.60;;;19.40;1.00;;;;;;6324381;22;20371;-82
2022/07/13 03:44:43;;;;;;;8.43;3.20;;;19.40;1.00;;;;;;6322680;22;20426;-81
2022/07/13 03:47:14;;;;;;;17.17;3.83;;;19.40;1.00;;;;;;6307174;22;20386;-82
2022/07/13 03:49:41;;;;;;;10.60;3.57;;;19.40;1.00;;;;;;6318134;22;20576;-81
2022/07/13 03:52:14;;;;;;;9.30;2.97;;;19.40;1.00;;;;;;6304739;22;20458;-80
2022/07/13 03:54:41;;;;;;;9.17;3.10;;;19.50;1.00;;;;;;6314680;22;20500;-81
2022/07/13 03:57:11;;;;;;;12.10;2.83;;;19.60;1.00;;;;;;6323067;22;20493;-84
2022/07/13 03:59:40;;;;;;;9.67;3.07;;;19.60;1.00;;;;;;6315916;22;20477;-80
2022/07/13 04:02:06;;;;;;;13.57;3.57;;;19.60;1.00;;;;;;6321839;22;20501;-84
2022/07/13 04:04:35;;;;;;;9.67;4.23;;;19.60;1.00;;;;;;6313889;22;20558;-81
2022/07/13 04:07:01;;;;;;;9.00;3.43;;;19.70;1.00;;;;;;6319795;22;21190;-85
2022/07/13 04:09:35;;;;;;;7.07;3.03;;;19.70;1.00;;;;;;6321799;22;21225;-80
2022/07/13 04:12:01;;;;;;;9.93;3.07;;;19.80;1.00;;;;;;6319554;22;20850;-84
2022/07/13 04:14:29;;;;;;;7.30;2.70;;;19.90;1.00;;;;;;6323737;22;20499;-81
2022/07/13 04:16:56;;;;;;;12.90;3.20;;;19.90;1.00;;;;;;6317590;22;20505;-81
2022/07/13 04:19:24;;;;;;;7.37;3.73;;;20.00;1.00;;;;;;6317107;22;20768;-81
2022/07/13 04:21:51;;;;;;;6.43;2.40;;;20.00;1.00;;;;;;6317972;22;20418;-81
2022/07/13 04:24:18;;;;;;;10.80;3.77;;;20.10;1.00;;;;;;6317327;22;20438;-82
2022/07/13 04:26:47;;;;;;;6.20;2.70;;;20.10;1.00;;;;;;6319375;22;20839;-81
2022/07/13 04:29:18;;;;;;;8.63;3.63;;;20.20;1.00;;;;;;6323709;22;20399;-81
2022/07/13 04:31:45;;;;;;;8.30;2.77;;;20.20;1.00;;;;;;6322643;22;20426;-83
2022/07/13 04:34:12;;;;;;;6.80;3.43;;;20.30;1.00;;;;;;6326904;22;20394;-78
2022/07/13 04:36:42;;;;;;;7.73;3.50;;;20.30;1.00;;;;;;6316238;22;20389;-83
2022/07/13 04:39:10;;;;;;;7.87;3.50;;;20.40;1.00;;;;;;6320351;22;20910;-84
2022/07/13 04:41:40;;;;;;;6.43;3.00;;;20.50;1.00;;;;;;6320257;22;20387;-81
2022/07/13 04:44:08;;;;;;;8.40;3.57;;;20.60;1.00;;;;;;6319007;22;20915;-81
2022/07/13 04:46:36;;;;;;;6.50;2.90;;;20.60;1.00;;;;;;6322428;22;20458;-81
2022/07/13 04:49:04;;;;;;;6.50;3.33;;;20.60;1.00;;;;;;6318465;22;20414;-82
2022/07/13 04:51:32;;;;;;;8.83;3.40;;;20.60;1.00;;;;;;6322786;22;20418;-81
2022/07/13 04:54:00;;;;;;;8.20;2.87;;;20.70;1.00;;;;;;6322621;22;20426;-81
2022/07/13 04:56:30;;;;;;;6.93;3.20;;;20.70;1.00;;;;;;6322488;22;20433;-80
2022/07/13 04:58:58;;;;;;;5.87;2.70;;;20.80;1.00;;;;;;6320353;22;20445;-80
2022/07/13 05:01:39;;;;;;;10.20;3.30;;;20.80;1.00;;;;;;6322325;22;20394;-80
2022/07/13 05:04:09;;;;;;;10.57;4.10;;;20.90;1.00;;;;;;6321715;22;20398;-83
2022/07/13 05:06:40;;;;;;;7.73;3.47;;;20.90;1.00;;;;;;6323776;22;20481;-84
2022/07/13 05:09:07;;;;;;;10.23;3.90;;;21.00;1.00;;;;;;6324909;22;20509;-85
2022/07/13 05:11:39;;;;;;;7.00;3.20;;;21.00;1.00;;;;;;6323045;22;20951;-81
2022/07/13 05:14:06;;;;;;;7.20;3.10;;;21.10;1.00;;;;;;6322554;22;20418;-84
2022/07/13 05:16:40;;;;;;;9.30;3.50;;;21.20;1.00;;;;;;6324601;22;20890;-82
2022/07/13 05:19:06;;;;;;;8.80;3.97;;;21.30;1.00;;;;;;6324664;22;20922;-83
2022/07/13 05:21:40;;;;;;;7.00;2.53;;;21.30;1.00;;;;;;6322732;22;20438;-80
2022/07/13 05:24:07;;;;;;;7.00;2.70;;;21.40;1.00;;;;;;6324996;22;20424;-81
2022/07/13 05:26:39;;;;;;;6.70;3.00;;;21.40;1.00;;;;;;6323626;22;21200;-80
2022/07/13 05:29:06;;;;;;;7.10;2.67;;;21.50;1.00;;;;;;6323400;22;20425;-81
2022/07/13 05:31:40;;;;;;;8.20;3.40;;;21.60;1.00;;;;;;6321815;22;20366;-79
2022/07/13 05:34:07;;;;;;;7.63;2.80;;;21.60;1.00;;;;;;6324875;22;20426;-80
2022/07/13 05:36:34;;;;;;;7.00;2.87;;;21.70;1.00;;;;;;6323549;22;20421;-82
2022/07/13 05:39:04;;;;;;;6.53;3.07;;;21.80;1.00;;;;;;6323431;22;20971;-82
2022/07/13 05:41:32;;;;;;;6.90;2.97;;;21.90;1.00;;;;;;6322353;22;20416;-84
2022/07/13 05:44:00;;;;;;;7.80;3.53;;;22.00;1.00;;;;;;6324991;22;20803;-82
2022/07/13 05:46:27;;;;;;;8.53;4.80;;;22.10;1.00;;;;;;6325211;22;20418;-81
2022/07/13 05:48:59;;;;;;;8.83;3.60;;;22.20;1.00;;;;;;6322333;22;20438;-81
2022/07/13 05:51:26;;;;;;;8.43;3.93;;;22.20;1.00;;;;;;6321968;22;20418;-81
2022/07/13 05:53:53;;;;;;;7.50;2.90;;;22.30;1.00;;;;;;6322823;22;20418;-80
2022/07/13 05:56:24;;;;;;;9.43;3.73;;;22.30;1.00;;;;;;6325730;22;20386;-82
2022/07/13 05:58:50;;;;;;;9.20;4.10;;;22.40;1.00;;;;;;6321660;22;20442;-81
2022/07/13 06:01:19;;;;;;;8.00;3.30;;;22.40;1.00;;;;;;6324349;22;20362;-82
2022/07/13 06:03:46;;;;;;;8.10;3.67;;;22.40;1.00;;;;;;6326235;22;20924;-84
2022/07/13 06:06:19;;;;;;;8.50;3.00;;;22.50;1.00;;;;;;6323919;22;20415;-85
2022/07/13 06:08:46;;;;;;;5.93;2.70;;;22.60;1.00;;;;;;6324007;22;20877;-84
2022/07/13 06:11:17;;;;;;;6.73;3.00;;;22.60;1.00;;;;;;6325542;22;20896;-82
2022/07/13 06:13:46;;;;;;;8.53;4.07;;;22.60;1.00;;;;;;6324758;22;20842;-82
2022/07/13 06:16:13;;;;;;;7.73;3.20;;;22.70;1.00;;;;;;6321953;22;20420;-82
2022/07/13 06:18:40;;;;;;;7.33;3.30;;;22.80;1.00;;;;;;6324746;22;20390;-81
2022/07/13 06:21:10;;;;;;;7.97;2.90;;;22.90;1.00;;;;;;6323449;22;20409;-84
2022/07/13 06:23:41;;;;;;;10.03;2.97;;;23.00;1.00;;;;;;6322711;22;20437;-82
2022/07/13 06:26:09;;;;;;;6.43;2.87;;;23.00;1.00;;;;;;6322151;22;20444;-81
2022/07/13 06:28:36;;;;;;;10.23;3.17;;;23.10;1.00;;;;;;6324219;22;20402;-84
2022/07/13 06:31:03;;;;;;;6.60;2.90;;;23.10;1.00;;;;;;6323975;22;20389;-85
2022/07/13 06:33:30;;;;;;;14.47;3.40;;;23.20;1.00;;;;;;6324258;22;20444;-81
2022/07/13 06:36:00;;;;;;;6.77;3.07;;;23.40;1.00;;;;;;6323268;22;20405;-82
2022/07/13 06:38:27;;;;;;;7.53;3.23;;;23.50;1.00;;;;;;6323708;22;20410;-80
2022/07/13 06:40:59;;;;;;;7.70;2.73;;;23.60;1.00;;;;;;6322980;22;20520;-81
2022/07/13 06:43:28;;;;;;;6.80;2.87;;;23.70;1.00;;;;;;6324556;22;20398;-80
2022/07/13 06:45:59;;;;;;;8.53;3.63;;;23.80;1.00;;;;;;6322765;22;20421;-82
2022/07/13 06:48:26;;;;;;;8.10;2.90;;;23.90;1.00;;;;;;6323637;22;20581;-82
2022/07/13 06:50:53;;;;;;;7.80;2.90;;;24.00;1.00;;;;;;6322776;22;20510;-81
2022/07/13 06:53:20;;;;;;;8.27;3.20;;;24.10;1.00;;;;;;6323482;22;20425;-80
2022/07/13 06:55:47;;;;;;;7.60;2.60;;;24.20;1.00;;;;;;6324021;22;20427;-82
2022/07/13 06:58:21;;;;;;;7.43;2.80;;;24.40;1.00;;;;;;6324220;22;20505;-82
2022/07/13 07:00:48;;;;;;;8.20;3.53;;;24.50;1.00;;;;;;6322954;22;20505;-81
2022/07/13 07:03:18;;;;;;;5.70;2.43;;;24.60;1.00;;;;;;6322446;22;20425;-82
2022/07/13 07:05:44;;;;;;;9.57;2.40;;;24.70;1.00;;;;;;6318346;22;20418;-82
2022/07/13 07:08:12;;;;;;;5.40;2.17;;;24.70;1.00;;;;;;6319906;22;20418;-81
2022/07/13 07:10:38;;;;;;;7.23;2.10;;;24.80;1.00;;;;;;6318140;22;20462;-81
2022/07/13 07:13:05;;;;;;;6.97;2.60;;;24.80;1.00;;;;;;6323952;22;20556;-82
2022/07/13 07:15:34;;;;;;;6.37;2.77;;;24.80;1.00;;;;;;6299390;22;20820;-82
2022/07/13 07:18:01;;;;;;;6.17;1.90;;;24.80;1.00;;;;;;6322217;22;20835;-82
2022/07/13 07:20:30;;;;;;;5.70;2.50;;;24.90;1.00;;;;;;6323161;22;20476;-81
2022/07/13 07:23:00;;;;;;;6.77;2.90;;;25.00;1.00;;;;;;6322646;22;20918;-81
2022/07/13 07:25:27;;;;;;;6.40;2.30;;;25.10;1.00;;;;;;6322954;22;20844;-81
2022/07/13 07:27:55;;;;;;;7.10;2.10;;;25.30;1.00;;;;;;6323219;22;20390;-82
2022/07/13 07:30:22;;;;;;;5.27;2.17;;;25.40;1.00;;;;;;6324640;22;20493;-83
2022/07/13 07:32:50;;;;;;;9.50;4.07;;;25.50;1.00;;;;;;6318263;22;20457;-83
2022/07/13 07:35:20;;;;;;;5.53;2.77;;;25.50;1.00;;;;;;6323175;22;20410;-82
2022/07/13 07:37:50;;;;;;;6.10;2.20;;;25.60;1.00;;;;;;6328126;22;20403;-82
2022/07/13 07:40:21;;;;;;;4.40;2.13;;;25.80;1.00;;;;;;6325530;22;20390;-82
2022/07/13 07:42:47;;;;;;;6.10;2.80;;;25.90;1.00;;;;;;6323948;22;20509;-83
2022/07/13 07:45:19;;;;;;;6.30;2.20;;;25.90;1.00;;;;;;6324150;22;20414;-82
2022/07/13 07:47:46;;;;;;;6.17;2.70;;;26.10;1.00;;;;;;6323573;22;20414;-82
2022/07/13 07:50:20;;;;;;;4.93;2.20;;;26.30;1.00;;;;;;6324407;22;20426;-84
2022/07/13 07:52:48;;;;;;;5.93;2.43;;;26.30;1.00;;;;;;6324850;22;20492;-84
2022/07/13 07:55:22;;;;;;;4.43;2.30;;;26.40;1.00;;;;;;6325466;22;20410;-85
2022/07/13 07:57:51;;;;;;;4.50;1.67;;;26.40;1.00;;;;;;6324194;22;20417;-84
2022/07/13 08:00:20;;;;;;;4.73;2.30;;;26.40;1.00;;;;;;6326003;22;20490;-83
2022/07/13 08:02:48;;;;;;;7.13;3.00;;;26.40;1.00;;;;;;6323418;22;20420;-81
2022/07/13 08:05:20;;;;;;;6.00;2.80;;;26.50;1.00;;;;;;6323990;22;20418;-80
2022/07/13 08:07:50;;;;;;;6.00;2.73;;;26.60;1.00;;;;;;6323807;22;20442;-80
2022/07/13 08:10:20;;;;;;;4.50;2.63;;;26.70;1.00;;;;;;6319038;22;20402;-81
2022/07/13 08:12:47;;;;;;;4.67;1.80;;;26.90;1.00;;;;;;6321555;22;20513;-84
2022/07/13 08:15:16;;;;;;;4.57;2.10;;;27.10;1.00;;;;;;6325797;22;20952;-84
2022/07/13 08:17:43;;;;;;;4.43;2.10;;;27.30;1.00;;;;;;6323472;22;20441;-82
2022/07/13 08:20:11;;;;;;;5.40;2.33;;;27.30;1.00;;;;;;6323033;22;20394;-82
2022/07/13 08:22:40;;;;;;;3.90;2.13;;;27.40;1.00;;;;;;6322157;22;20453;-81
2022/07/13 08:25:07;;;;;;;5.30;2.20;;;27.40;1.00;;;;;;6322232;22;20927;-82
2022/07/13 08:27:38;;;;;;;6.13;2.37;;;27.40;1.00;;;;;;6320330;22;20426;-81
2022/07/13 08:30:07;;;;;;;4.30;2.50;;;27.30;1.00;;;;;;6325921;22;20399;-82
2022/07/13 08:32:33;;;;;;;4.33;2.33;;;27.30;1.00;;;;;;6321877;22;20426;-82
2022/07/13 08:40:30;;;;;;;4.43;1.87;;;27.20;1.00;;;;;;6324546;22;20414;-82
2022/07/13 08:43:00;;;;;;;5.33;2.30;;;27.20;1.00;;;;;;6325829;22;20390;-82
2022/07/13 08:45:28;;;;;;;4.70;2.10;;;27.30;1.00;;;;;;6297268;22;20453;-82
2022/07/13 08:48:00;;;;;;;7.47;2.70;;;27.40;1.00;;;;;;6321614;22;20918;-81
2022/07/13 08:50:28;;;;;;;4.17;2.60;;;27.60;1.00;;;;;;6324677;22;20414;-82
2022/07/13 08:53:01;;;;;;;5.57;2.47;;;27.90;1.00;;;;;;6321414;22;20461;-82
2022/07/13 08:55:29;;;;;;;4.00;2.00;;;28.20;1.00;;;;;;6326139;22;21009;-83
2022/07/13 08:58:04;;;;;;;5.37;2.17;;;28.40;1.00;;;;;;6325995;22;20442;-85
2022/07/13 09:00:31;;;;;;;4.00;2.50;;;28.90;1.00;;;;;;6325060;22;20441;-83
2022/07/13 09:03:00;;;;;;;4.20;1.93;;;29.20;1.00;;;;;;6323946;22;20434;-84
2022/07/13 09:05:28;;;;;;;4.07;2.20;;;29.40;1.00;;;;;;6325037;22;20413;-84
2022/07/13 09:08:10;;;;;;;7.40;2.20;;;29.50;1.00;;;;;;6322679;22;20398;-81
2022/07/13 09:10:53;;;;;;;3.60;2.23;;;29.80;1.00;;;;;;6324069;22;20410;-84
2022/07/13 09:13:41;;;;;;;6.30;2.20;;;30.10;1.00;;;;;;6324837;22;20465;-81
2022/07/13 09:16:20;;;;;;;4.03;1.60;;;30.30;1.00;;;;;;6325192;22;20406;-80
2022/07/13 09:18:48;;;;;;;4.93;1.97;;;30.30;1.00;;;;;;6324385;22;20417;-84
2022/07/13 09:21:26;;;;;;;3.47;1.67;;;30.10;1.00;;;;;;6323160;22;20429;-81
2022/07/13 09:24:01;;;;;;;3.83;1.60;;;29.80;1.00;;;;;;6324349;22;20430;-84
2022/07/13 09:26:41;;;;;;;4.13;1.73;;;29.70;1.00;;;;;;6324437;22;20419;-80
2022/07/13 09:29:07;;;;;;;3.70;1.70;;;29.70;1.00;;;;;;6323124;22;20533;-80
2022/07/13 09:31:52;;;;;;;3.30;1.70;;;29.90;1.00;;;;;;6324025;22;20430;-81
2022/07/13 09:34:21;;;;;;;4.00;1.37;;;30.10;1.00;;;;;;6325762;22;20386;-84
2022/07/13 09:37:08;;;;;;;6.10;2.00;;;30.20;1.00;;;;;;6326148;22;20913;-81
2022/07/13 09:40:08;;;;;;;4.17;1.70;;;30.40;1.00;;;;;;6325469;22;20890;-84
2022/07/13 09:42:42;;;;;;;3.30;1.40;;;31.20;1.00;;;;;;6326791;22;20393;-83
2022/07/13 09:48:01;;;;;;;4.80;1.97;;;31.10;1.00;;;;;;6325441;22;20432;-80
2022/07/13 09:50:41;;;;;;;3.87;1.83;;;30.90;1.00;;;;;;6325699;22;20758;-82
2022/07/13 09:53:25;;;;;;;4.40;2.10;;;30.80;1.00;;;;;;6323980;22;20418;-82
2022/07/13 09:55:57;;;;;;;4.70;1.93;;;31.10;1.00;;;;;;6324325;22;20417;-85
2022/07/13 09:58:29;;;;;;;3.67;1.87;;;31.30;1.00;;;;;;6325598;22;20456;-81
2022/07/13 10:01:02;;;;;;;3.60;1.70;;;31.40;1.00;;;;;;6322853;22;20374;-81
2022/07/13 10:03:30;;;;;;;5.57;1.70;;;31.60;1.00;;;;;;6323128;22;20505;-81
2022/07/13 10:06:02;;;;;;;3.37;2.27;;;32.60;1.00;;;;;;6324755;22;20386;-84
2022/07/13 10:08:30;;;;;;;3.70;2.80;;;33.80;1.00;;;;;;6324622;22;20411;-83
2022/07/13 10:11:02;;;;;;;3.80;1.90;;;34.10;1.00;;;;;;6324479;22;20394;-82
2022/07/13 10:13:29;;;;;;;3.60;2.30;;;33.80;1.00;;;;;;6324973;22;20441;-79
2022/07/13 10:16:00;;;;;;;3.17;2.00;;;33.10;1.00;;;;;;6324010;22;20421;-82
2022/07/13 10:18:32;;;;;;;3.47;1.90;;;32.60;1.00;;;;;;6324807;22;20398;-83
2022/07/13 10:21:12;;;;;;;4.03;2.30;;;32.60;1.00;;;;;;6323802;22;20428;-83
2022/07/13 10:23:41;;;;;;;3.33;2.03;;;33.40;1.00;;;;;;6322415;22;20408;-83
2022/07/13 10:26:22;;;;;;;3.73;2.10;;;35.00;1.00;;;;;;6324507;22;20426;-80
2022/07/13 10:29:05;;;;;;;3.00;1.80;;;35.20;1.00;;;;;;6324734;22;20463;-81
2022/07/13 10:31:36;;;;;;;3.90;2.00;;;34.60;1.00;;;;;;6326886;22;20410;-81
2022/07/13 10:34:04;;;;;;;3.77;1.67;;;34.10;1.00;;;;;;6324539;22;20886;-81
2022/07/13 10:36:53;;;;;;;6.60;2.20;;;33.20;1.00;;;;;;6309160;22;20398;-81
2022/07/13 10:39:22;;;;;;;3.30;2.10;;;33.00;1.00;;;;;;6324772;22;20384;-82
2022/07/13 10:42:03;;;;;;;3.90;1.73;;;33.00;1.00;;;;;;6319949;22;20432;-82
2022/07/13 10:44:40;;;;;;;4.53;2.10;;;33.90;1.00;;;;;;6319002;22;20422;-82
2022/07/13 10:47:11;;;;;;;3.00;2.00;;;35.50;1.00;;;;;;6321565;22;20861;-83
2022/07/13 10:49:46;;;;;;;4.37;1.80;;;36.40;1.00;;;;;;6322718;22;20374;-82
2022/07/13 10:52:43;;;;;;;3.00;1.80;;;36.10;1.00;;;;;;6325017;22;21273;-81
2022/07/13 10:55:28;;;;;;;3.37;1.70;;;36.00;1.00;;;;;;6318708;22;20446;-81
2022/07/13 10:58:01;;;;;;;3.73;2.00;;;35.60;1.00;;;;;;6318701;22;20425;-83
2022/07/13 11:00:44;;;;;;;3.07;1.90;;;35.10;1.00;;;;;;6325451;22;20541;-80
2022/07/13 11:03:31;;;;;;;4.17;2.60;;;34.60;1.00;;;;;;6325658;22;20394;-81
2022/07/13 11:06:08;;;;;;;3.97;1.80;;;33.90;1.00;;;;;;6323927;22;20426;-84
2022/07/13 11:08:36;;;;;;;4.00;2.17;;;33.50;1.00;;;;;;6324464;22;20481;-83
2022/07/13 11:11:14;;;;;;;4.10;2.10;;;33.10;1.00;;;;;;6326556;22;20374;-82
2022/07/13 11:13:50;;;;;;;4.47;2.00;;;32.70;1.00;;;;;;6325538;22;20401;-83
2022/07/13 11:16:50;;;;;;;4.87;3.47;;;32.20;1.00;;;;;;6329286;22;21183;-85
2022/07/13 11:20:09;;;;;;;3.60;2.33;;;31.70;1.00;;;;;;6324988;22;20450;-82
2022/07/13 11:25:55;;;;;;;5.07;2.50;;;30.70;1.00;;;;;;6329116;22;20444;-82
2022/07/13 11:28:31;;;;;;;3.10;1.93;;;30.40;1.00;;;;;;6310681;22;20422;-82
2022/07/13 11:31:07;;;;;;;4.17;2.03;;;30.40;1.00;;;;;;6327032;22;20512;-81
2022/07/13 11:33:43;;;;;;;4.10;2.30;;;30.70;1.00;;;;;;6325878;22;20846;-82
2022/07/13 11:36:11;;;;;;;4.60;2.83;;;31.20;1.00;;;;;;6324474;22;20432;-82
2022/07/13 11:38:41;;;;;;;4.27;2.20;;;31.90;1.00;;;;;;6322816;22;21237;-83
2022/07/13 11:41:23;;;;;;;3.47;2.07;;;32.40;1.00;;;;;;6328802;22;20422;-84
2022/07/13 11:43:51;;;;;;;3.80;2.30;;;32.20;1.00;;;;;;6269940;22;20395;-92
2022/07/13 11:46:31;;;;;;;5.07;2.03;;;31.90;1.00;;;;;;6295407;22;20477;-91
2022/07/13 11:49:03;;;;;;;2.90;2.07;;;31.60;1.00;;;;;;6291599;22;20431;-92
2022/07/13 11:51:31;;;;;;;4.17;2.23;;;31.40;1.00;;;;;;6292779;22;20620;-91
2022/07/13 11:54:14;;;;;;;4.70;2.30;;;31.20;1.00;;;;;;6289834;22;20407;-91
2022/07/13 11:56:51;;;;;;;4.17;1.80;;;31.00;1.00;;;;;;6289378;22;20541;-91
2022/07/13 11:59:36;;;;;;;5.90;2.30;;;31.00;1.00;;;;;;6291123;22;20445;-91
2022/07/13 12:02:09;;;;;;;4.70;2.20;;;31.30;1.00;;;;;;6290405;22;20479;-91
2022/07/13 12:04:39;;;;;;;3.73;2.00;;;31.40;1.00;;;;;;6290235;22;20419;-91
2022/07/13 12:07:15;;;;;;;3.30;1.63;;;31.70;1.00;;;;;;6293510;22;20411;-91
2022/07/13 12:09:57;;;;;;;5.27;2.23;;;31.90;1.00;;;;;;6293798;22;20869;-91
2022/07/13 12:12:27;;;;;;;4.50;4.10;;;31.90;1.00;;;;;;6290791;22;20871;-92
2022/07/13 12:14:59;;;;;;;4.50;2.57;;;31.90;1.00;;;;;;6288571;22;20883;-90
2022/07/13 12:17:29;;;;;;;3.37;1.93;;;31.80;1.00;;;;;;6291804;22;20462;-91
2022/07/13 12:20:10;;;;;;;3.73;2.20;;;31.40;1.00;;;;;;6289956;22;20459;-90
2022/07/13 12:22:49;;;;;;;3.80;2.50;;;31.10;1.00;;;;;;6291829;22;20537;-91
2022/07/13 12:25:34;;;;;;;4.10;2.07;;;31.00;1.00;;;;;;6287635;22;20411;-90
2022/07/13 12:28:06;;;;;;;4.70;2.23;;;30.80;1.00;;;;;;6285973;22;20510;-90
2022/07/13 12:30:34;;;;;;;3.70;2.30;;;30.70;1.00;;;;;;6286930;22;20423;-91
2022/07/13 12:33:04;;;;;;;3.83;2.10;;;30.80;1.00;;;;;;6288090;22;20605;-91
2022/07/13 12:35:32;;;;;;;4.20;2.00;;;30.70;1.00;;;;;;6292556;22;21006;-91
2022/07/13 12:38:01;;;;;;;3.70;2.40;;;30.80;1.00;;;;;;6292097;22;20414;-91
2022/07/13 12:40:44;;;;;;;3.00;1.80;;;30.90;1.00;;;;;;6291954;22;20399;-90
2022/07/13 12:43:23;;;;;;;6.13;2.43;;;31.50;1.00;;;;;;6292167;22;20399;-90
2022/07/13 12:45:52;;;;;;;3.40;2.10;;;33.70;1.00;;;;;;6291042;22;20816;-91
2022/07/13 12:48:24;;;;;;;2.70;1.90;;;36.60;1.00;;;;;;6292486;22;20422;-91
2022/07/13 12:51:03;;;;;;;4.80;2.13;;;37.60;1.00;;;;;;6290207;22;21422;-91
2022/07/13 12:53:45;;;;;;;3.90;2.17;;;37.70;1.00;;;;;;6291575;22;20406;-91
2022/07/13 12:56:13;;;;;;;4.10;2.20;;;38.80;1.00;;;;;;6291836;22;20421;-92
2022/07/13 12:58:43;;;;;;;3.30;2.00;;;37.80;1.00;;;;;;6290789;22;20481;-91
2022/07/13 13:01:10;;;;;;;3.47;2.13;;;36.50;1.00;;;;;;6293666;22;20431;-92
2022/07/13 13:03:42;;;;;;;4.57;1.87;;;35.60;1.00;;;;;;6292015;22;20439;-92
2022/07/13 13:06:09;;;;;;;3.23;2.00;;;34.50;1.00;;;;;;6291353;22;20408;-90
2022/07/13 13:08:46;;;;;;;4.00;2.33;;;33.70;1.00;;;;;;6290020;22;20419;-91
2022/07/13 13:11:13;;;;;;;4.00;2.10;;;33.10;1.00;;;;;;6290116;22;20878;-89
2022/07/13 13:13:41;;;;;;;4.70;2.40;;;32.60;1.00;;;;;;6289838;22;20395;-91
2022/07/13 13:16:08;;;;;;;8.60;1.73;;;32.50;1.00;;;;;;6292892;22;20435;-89
2022/07/13 13:18:43;;;;;;;4.13;1.80;;;32.40;1.00;;;;;;6291387;22;20384;-90
2022/07/13 13:21:12;;;;;;;3.50;1.70;;;32.10;1.00;;;;;;6290929;22;20423;-90
2022/07/13 13:23:41;;;;;;;3.17;1.90;;;31.90;1.00;;;;;;6289837;22;20427;-91
2022/07/13 13:26:09;;;;;;;3.67;2.10;;;31.80;1.00;;;;;;6291046;22;20422;-90
2022/07/13 13:31:16;;;;;;;3.63;1.80;;;32.30;1.00;;;;;;6287973;22;20455;-91